createdAt,value
2022-09-16T00:00:29.893Z,93642.41
2022-09-16T00:02:57.173Z,93650.00
2022-09-16T00:05:24.075Z,93653.81
2022-09-16T00:07:50.755Z,93641.56
2022-09-16T00:10:18.364Z,93654.28
2022-09-16T00:12:45.052Z,93655.59
2022-09-16T00:15:12.184Z,93665.09
2022-09-16T00:17:38.903Z,93660.69
2022-09-16T00:20:09.376Z,93673.88
2022-09-16T00:22:35.996Z,93666.56
2022-09-16T00:25:02.716Z,93666.03
2022-09-16T00:27:29.409Z,93659.50
2022-09-16T00:29:56.045Z,93659.06
2022-09-16T00:32:25.736Z,93656.84
2022-09-16T00:34:52.825Z,93644.75
2022-09-16T00:37:19.684Z,93633.81
2022-09-16T00:39:49.843Z,93629.09
2022-09-16T00:42:18.082Z,93639.34
2022-09-16T00:45:02.210Z,93643.16
2022-09-16T00:47:41.977Z,93638.94
2022-09-16T00:50:12.789Z,93650.38
2022-09-16T00:52:41.521Z,93652.41
2022-09-16T00:55:12.115Z,93657.84
2022-09-16T00:57:41.760Z,93656.47
2022-09-16T01:00:11.838Z,93650.22
2022-09-16T01:02:38.895Z,93658.91
2022-09-16T01:05:12.319Z,93656.66
2022-09-16T01:07:48.145Z,93650.00
2022-09-16T01:10:18.097Z,93658.03
2022-09-16T01:12:49.946Z,93662.34
2022-09-16T01:15:18.039Z,93667.56
2022-09-16T01:18:21.578Z,93663.63
2022-09-16T01:21:13.717Z,93659.28
2022-09-16T01:23:58.960Z,93655.38
2022-09-16T01:26:50.958Z,93658.53
2022-09-16T01:29:58.537Z,93660.69
2022-09-16T01:32:49.900Z,93667.47
2022-09-16T01:35:25.302Z,93665.16
2022-09-16T01:38:07.159Z,93661.59
2022-09-16T01:41:09.219Z,93668.94
2022-09-16T01:43:41.451Z,93657.00
2022-09-16T01:46:19.828Z,93652.22
2022-09-16T01:48:58.133Z,93651.53
2022-09-16T01:51:29.547Z,93647.84
2022-09-16T01:54:08.361Z,93648.03
2022-09-16T01:57:08.419Z,93643.25
2022-09-16T01:59:42.961Z,93636.56
2022-09-16T02:02:29.515Z,93629.59
2022-09-16T02:05:00.020Z,93632.78
2022-09-16T02:07:33.294Z,93639.84
2022-09-16T02:10:08.928Z,93626.84
2022-09-16T02:12:39.899Z,93622.31
2022-09-16T02:15:11.018Z,93623.78
2022-09-16T02:17:44.855Z,93637.13
2022-09-16T02:20:24.723Z,93649.16
2022-09-16T02:23:12.432Z,93641.59
2022-09-16T02:25:40.442Z,93653.50
2022-09-16T02:28:13.181Z,93638.66
2022-09-16T02:30:47.998Z,93643.25
2022-09-16T02:33:17.861Z,93647.06
2022-09-16T02:35:48.563Z,93650.44
2022-09-16T02:38:23.408Z,93643.03
2022-09-16T02:40:57.288Z,93649.78
2022-09-16T02:43:25.464Z,93653.84
2022-09-16T02:46:23.232Z,93665.19
2022-09-16T02:49:22.745Z,93657.13
2022-09-16T02:52:14.599Z,93661.34
2022-09-16T02:54:56.213Z,93665.69
2022-09-16T02:57:23.058Z,93666.69
2022-09-16T02:59:50.656Z,93665.75
2022-09-16T03:02:17.571Z,93667.13
2022-09-16T03:04:45.303Z,93673.91
2022-09-16T03:07:13.692Z,93681.41
2022-09-16T03:09:44.105Z,93684.72
2022-09-16T03:12:36.579Z,93677.53
2022-09-16T03:15:34.721Z,93690.47
2022-09-16T03:18:27.906Z,93705.88
2022-09-16T03:21:07.257Z,93717.38
2022-09-16T03:23:45.577Z,93715.69
2022-09-16T03:26:43.221Z,93701.59
2022-09-16T03:29:22.807Z,93696.69
2022-09-16T03:31:49.365Z,93682.84
2022-09-16T03:34:30.299Z,93678.16
2022-09-16T03:37:02.235Z,93673.56
2022-09-16T03:39:29.730Z,93681.09
2022-09-16T03:42:01.632Z,93662.75
2022-09-16T03:44:32.842Z,93646.63
2022-09-16T03:46:59.561Z,93644.56
2022-09-16T03:49:26.220Z,93639.13
2022-09-16T03:51:52.842Z,93641.50
2022-09-16T03:54:19.416Z,93636.28
2022-09-16T03:56:46.036Z,93647.25
2022-09-16T03:59:12.639Z,93661.00
2022-09-16T04:01:39.483Z,93684.63
2022-09-16T04:04:06.218Z,93698.19
2022-09-16T04:06:32.907Z,93699.53
2022-09-16T04:09:02.281Z,93716.88
2022-09-16T04:11:31.715Z,93724.72
2022-09-16T04:13:59.158Z,93730.63
2022-09-16T04:16:26.032Z,93726.91
2022-09-16T04:18:52.676Z,93728.56
2022-09-16T04:21:19.420Z,93721.78
2022-09-16T04:23:46.077Z,93728.22
2022-09-16T04:26:12.685Z,93724.41
2022-09-16T04:28:39.322Z,93718.59
2022-09-16T04:31:12.168Z,93717.31
2022-09-16T04:33:39.268Z,93714.59
2022-09-16T04:36:14.543Z,93709.78
2022-09-16T04:38:43.019Z,93704.22
2022-09-16T04:41:18.930Z,93703.75
2022-09-16T04:43:46.174Z,93717.53
2022-09-16T04:46:13.645Z,93718.09
2022-09-16T04:48:43.207Z,93724.63
2022-09-16T04:51:12.195Z,93732.88
2022-09-16T04:53:41.578Z,93721.31
2022-09-16T04:56:14.728Z,93736.06
2022-09-16T04:58:50.204Z,93740.75
2022-09-16T05:01:25.816Z,93740.00
2022-09-16T05:03:55.551Z,93729.31
2022-09-16T05:06:24.467Z,93729.31
2022-09-16T05:08:53.720Z,93729.63
2022-09-16T05:11:23.228Z,93721.75
2022-09-16T05:13:49.955Z,93715.88
2022-09-16T05:16:21.797Z,93715.22
2022-09-16T05:18:51.045Z,93715.84
2022-09-16T05:21:20.318Z,93707.56
2022-09-16T05:23:48.160Z,93704.47
2022-09-16T05:26:20.327Z,93698.63
2022-09-16T05:28:47.452Z,93699.69
2022-09-16T05:31:26.625Z,93701.09
2022-09-16T05:34:00.727Z,93710.16
2022-09-16T05:36:30.176Z,93696.22
2022-09-16T05:39:21.609Z,93692.75
2022-09-16T05:41:44.841Z,93694.16
2022-09-16T05:44:11.532Z,93688.16
2022-09-16T05:46:40.654Z,93690.28
2022-09-16T05:49:08.563Z,93680.66
2022-09-16T05:51:38.059Z,93686.31
2022-09-16T05:54:05.132Z,93693.19
2022-09-16T05:56:31.712Z,93701.66
2022-09-16T05:59:00.509Z,93699.59
2022-09-16T06:01:35.487Z,93695.38
2022-09-16T06:04:04.589Z,93693.03
2022-09-16T06:06:36.836Z,93698.50
2022-09-16T06:09:11.998Z,93690.91
2022-09-16T06:11:41.230Z,93689.00
2022-09-16T06:14:08.868Z,93692.47
2022-09-16T06:16:36.607Z,93687.91
2022-09-16T06:19:07.149Z,93688.72
2022-09-16T06:21:33.760Z,93679.75
2022-09-16T06:24:00.452Z,93696.22
2022-09-16T06:26:27.703Z,93682.72
2022-09-16T06:28:57.635Z,93677.44
2022-09-16T06:31:26.478Z,93679.56
2022-09-16T06:33:56.194Z,93687.69
2022-09-16T06:36:26.579Z,93682.63
2022-09-16T06:38:53.301Z,93682.34
2022-09-16T06:41:21.446Z,93685.50
2022-09-16T06:43:49.018Z,93683.78
2022-09-16T06:46:18.624Z,93691.00
2022-09-16T06:48:48.337Z,93698.19
2022-09-16T06:51:23.004Z,93694.00
2022-09-16T06:53:51.424Z,93694.00
2022-09-16T06:56:20.495Z,93695.75
2022-09-16T06:58:49.340Z,93693.63
2022-09-16T07:01:17.455Z,93695.03
2022-09-16T07:03:46.300Z,93697.78
2022-09-16T07:06:14.484Z,93688.03
2022-09-16T07:08:42.341Z,93695.13
2022-09-16T07:11:12.600Z,93692.38
2022-09-16T07:13:40.301Z,93688.91
2022-09-16T07:16:13.944Z,93698.91
2022-09-16T07:18:41.813Z,93693.88
2022-09-16T07:21:17.324Z,93690.00
2022-09-16T07:23:45.473Z,93688.72
2022-09-16T07:26:17.867Z,93686.22
2022-09-16T07:28:47.125Z,93688.88
2022-09-16T07:31:25.676Z,93687.72
2022-09-16T07:33:53.892Z,93695.56
2022-09-16T07:36:23.983Z,93696.50
2022-09-16T07:38:51.523Z,93689.78
2022-09-16T07:41:23.421Z,93678.09
2022-09-16T07:43:50.800Z,93666.47
2022-09-16T07:46:19.040Z,93663.75
2022-09-16T07:48:47.931Z,93665.88
2022-09-16T07:51:23.421Z,93663.94
2022-09-16T07:53:55.095Z,93662.84
2022-09-16T07:56:25.471Z,93671.16
2022-09-16T07:58:54.157Z,93659.66
2022-09-16T08:01:21.359Z,93656.31
2022-09-16T08:03:48.656Z,93654.94
2022-09-16T08:06:17.999Z,93651.53
2022-09-16T08:08:45.463Z,93649.47
2022-09-16T08:11:14.405Z,93657.00
2022-09-16T08:13:43.008Z,93646.69
2022-09-16T08:16:13.437Z,93647.56
2022-09-16T08:18:40.697Z,93640.88
2022-09-16T08:21:08.789Z,93642.44
2022-09-16T08:23:36.476Z,93643.38
2022-09-16T08:26:04.297Z,93640.75
2022-09-16T08:28:40.033Z,93636.38
2022-09-16T08:31:19.955Z,93637.75
2022-09-16T08:33:47.245Z,93644.66
2022-09-16T08:36:21.051Z,93643.53
2022-09-16T08:38:49.606Z,93636.53
2022-09-16T08:41:46.692Z,93626.63
2022-09-16T08:45:11.808Z,93619.31
2022-09-16T08:48:08.085Z,93627.88
2022-09-16T08:50:38.302Z,93623.81
2022-09-16T08:53:14.785Z,93616.56
2022-09-16T08:55:46.834Z,93616.81
2022-09-16T08:58:17.737Z,93614.47
2022-09-16T09:00:47.389Z,93625.06
2022-09-16T09:03:22.015Z,93622.16
2022-09-16T09:05:54.524Z,93620.84
2022-09-16T09:08:38.572Z,93614.06
2022-09-16T09:11:17.223Z,93622.91
2022-09-16T09:13:53.124Z,93622.25
2022-09-16T09:16:48.832Z,93610.69
2022-09-16T09:19:36.728Z,93624.56
2022-09-16T09:22:09.798Z,93620.34
2022-09-16T09:24:51.514Z,93627.94
2022-09-16T09:27:39.097Z,93614.50
2022-09-16T09:30:14.533Z,93616.66
2022-09-16T09:32:59.364Z,93622.03
2022-09-16T09:35:47.282Z,93618.38
2022-09-16T09:38:31.859Z,93625.97
2022-09-16T09:41:05.822Z,93630.47
2022-09-16T09:43:41.442Z,93636.91
2022-09-16T09:46:10.526Z,93645.09
2022-09-16T09:48:41.883Z,93645.06
2022-09-16T09:51:21.099Z,93641.69
2022-09-16T09:53:53.612Z,93645.81
2022-09-16T09:56:35.373Z,93651.88
2022-09-16T09:59:44.919Z,93666.25
2022-09-16T10:02:20.729Z,93681.34
2022-09-16T10:04:48.205Z,93693.00
2022-09-16T10:07:18.478Z,93696.59
2022-09-16T10:09:58.024Z,93710.47
2022-09-16T10:12:43.047Z,93707.59
2022-09-16T10:15:34.303Z,93733.47
2022-09-16T10:18:03.048Z,93751.47
2022-09-16T10:20:34.997Z,93777.63
2022-09-16T10:23:27.635Z,93803.72
2022-09-16T10:26:20.707Z,93814.31
2022-09-16T10:28:57.262Z,93839.47
2022-09-16T10:31:29.316Z,93849.94
2022-09-16T10:34:00.851Z,93845.16
2022-09-16T10:36:32.782Z,93843.53
2022-09-16T10:39:04.889Z,93861.31
2022-09-16T10:41:42.410Z,93859.28
2022-09-16T10:44:24.120Z,93854.19
2022-09-16T10:47:02.853Z,93859.56
2022-09-16T10:49:44.728Z,93865.09
2022-09-16T10:52:21.676Z,93859.25
2022-09-16T10:54:49.229Z,93850.03
2022-09-16T10:57:35.238Z,93835.34
2022-09-16T11:00:21.768Z,93820.19
2022-09-16T11:03:06.484Z,93799.75
2022-09-16T11:05:54.699Z,93790.16
2022-09-16T11:08:24.416Z,93768.22
2022-09-16T11:11:11.905Z,93751.72
2022-09-16T11:13:38.699Z,93723.97
2022-09-16T11:16:13.618Z,93711.69
2022-09-16T11:19:00.483Z,93692.59
2022-09-16T11:21:26.999Z,93693.88
2022-09-16T11:24:10.684Z,93676.84
2022-09-16T11:27:05.298Z,93669.03
2022-09-16T11:29:42.760Z,93667.88
2022-09-16T11:32:25.205Z,93664.56
2022-09-16T11:35:17.744Z,93647.53
2022-09-16T11:38:16.443Z,93636.66
2022-09-16T11:40:45.911Z,93631.66
2022-09-16T11:43:51.015Z,93632.16
2022-09-16T11:46:36.485Z,93619.00
2022-09-16T11:49:08.954Z,93633.34
2022-09-16T11:51:47.806Z,93634.41
2022-09-16T11:55:05.123Z,93619.72
2022-09-16T11:57:37.256Z,93602.78
2022-09-16T12:00:16.880Z,93601.81
2022-09-16T12:03:10.613Z,93586.47
2022-09-16T12:05:42.978Z,93606.94
2022-09-16T12:08:44.608Z,93611.88
2022-09-16T12:11:24.031Z,93612.94
2022-09-16T12:14:05.453Z,93616.00
2022-09-16T12:16:47.058Z,93622.97
2022-09-16T12:19:22.226Z,93628.75
2022-09-16T12:21:57.825Z,93629.81
2022-09-16T12:24:31.026Z,93640.34
2022-09-16T12:27:31.345Z,93650.91
2022-09-16T12:30:02.810Z,93658.34
2022-09-16T12:32:43.739Z,93650.06
2022-09-16T12:35:36.720Z,93654.97
2022-09-16T12:38:03.788Z,93653.63
2022-09-16T12:40:50.592Z,93660.31
2022-09-16T12:43:35.449Z,93666.72
2022-09-16T12:46:08.138Z,93673.38
2022-09-16T12:48:55.219Z,93685.97
2022-09-16T12:51:50.366Z,93682.06
2022-09-16T12:54:51.222Z,93696.22
2022-09-16T12:57:55.753Z,93714.41
2022-09-16T13:00:26.064Z,93728.72
2022-09-16T13:02:57.667Z,93720.06
2022-09-16T13:05:36.773Z,93735.69
2022-09-16T13:08:18.997Z,93738.03
2022-09-16T13:13:37.424Z,93760.44
2022-09-16T13:16:06.681Z,93766.06
2022-09-16T13:18:50.391Z,93766.41
2022-09-16T13:21:28.057Z,93759.06
2022-09-16T13:24:04.054Z,93773.19
2022-09-16T13:26:42.217Z,93765.66
2022-09-16T13:29:47.167Z,93755.22
2022-09-16T13:32:49.010Z,93751.13
2022-09-16T13:35:18.647Z,93731.28
2022-09-16T13:37:46.773Z,93718.75
2022-09-16T13:40:25.124Z,93697.19
2022-09-16T13:43:03.518Z,93676.53
2022-09-16T13:45:34.054Z,93646.94
2022-09-16T13:48:23.341Z,93610.31
2022-09-16T13:51:01.383Z,93625.88
2022-09-16T13:53:34.728Z,93627.09
2022-09-16T13:56:46.887Z,93623.94
2022-09-16T13:59:20.480Z,93634.09
2022-09-16T14:02:27.556Z,93635.28
2022-09-16T14:05:04.391Z,93629.66
2022-09-16T14:08:05.026Z,93622.47
2022-09-16T14:10:56.800Z,93632.06
2022-09-16T14:13:25.186Z,93645.06
2022-09-16T14:15:56.429Z,93666.28
2022-09-16T14:18:29.767Z,93690.78
2022-09-16T14:21:03.692Z,93694.75
2022-09-16T14:23:32.645Z,93674.22
2022-09-16T14:26:34.935Z,93666.75
2022-09-16T14:29:03.670Z,93657.50
2022-09-16T14:31:32.584Z,93643.03
2022-09-16T14:34:07.567Z,93643.16
2022-09-16T14:36:37.956Z,93622.44
2022-09-16T14:39:12.078Z,93630.34
2022-09-16T14:41:46.136Z,93637.72
2022-09-16T14:44:22.687Z,93645.25
2022-09-16T14:47:28.369Z,93651.16
2022-09-16T14:50:12.427Z,93647.81
2022-09-16T14:52:39.209Z,93641.38
2022-09-16T14:55:20.455Z,93652.03
2022-09-16T14:57:47.405Z,93654.13
2022-09-16T15:00:17.362Z,93666.16
2022-09-16T15:02:49.991Z,93667.66
2022-09-16T15:05:23.044Z,93675.09
2022-09-16T15:08:12.604Z,93668.31
2022-09-16T15:10:53.208Z,93673.81
2022-09-16T15:13:24.404Z,93671.78
2022-09-16T15:15:53.575Z,93674.94
2022-09-16T15:18:28.771Z,93680.81
2022-09-16T15:21:19.800Z,93678.63
2022-09-16T15:23:52.214Z,93645.50
2022-09-16T15:26:29.437Z,93598.91
2022-09-16T15:28:59.117Z,93550.34
2022-09-16T15:31:37.061Z,93537.94
2022-09-16T15:34:22.927Z,93531.31
2022-09-16T15:36:54.859Z,93529.41
2022-09-16T15:39:32.987Z,93530.38
2022-09-16T15:42:17.285Z,93541.84
2022-09-16T15:44:50.003Z,93552.59
2022-09-16T15:47:21.264Z,93550.84
2022-09-16T15:49:53.023Z,93552.16
2022-09-16T15:52:19.775Z,93539.63
2022-09-16T15:54:56.179Z,93539.53
2022-09-16T15:57:41.047Z,93537.72
2022-09-16T16:00:16.274Z,93546.16
2022-09-16T16:02:53.478Z,93541.56
2022-09-16T16:05:30.178Z,93537.34
2022-09-16T16:08:09.646Z,93528.94
2022-09-16T16:10:36.744Z,93528.28
2022-09-16T16:13:06.617Z,93529.78
2022-09-16T16:15:39.430Z,93516.97
2022-09-16T16:18:08.772Z,93504.69
2022-09-16T16:20:37.248Z,93520.63
2022-09-16T16:23:04.002Z,93513.66
2022-09-16T16:25:32.356Z,93501.44
2022-09-16T16:27:59.065Z,93518.66
2022-09-16T16:30:25.739Z,93504.94
2022-09-16T16:32:52.403Z,93495.47
2022-09-16T16:35:18.967Z,93510.06
2022-09-16T16:37:47.261Z,93496.00
2022-09-16T16:40:15.370Z,93498.91
2022-09-16T16:42:43.739Z,93498.53
2022-09-16T16:45:14.157Z,93476.09
2022-09-16T16:47:41.248Z,93479.38
2022-09-16T16:50:08.211Z,93461.50
2022-09-16T16:52:34.847Z,93472.78
2022-09-16T16:55:01.671Z,93471.47
2022-09-16T16:57:28.252Z,93458.97
2022-09-16T16:59:54.884Z,93450.03
2022-09-16T17:02:21.470Z,93454.94
2022-09-16T17:04:48.173Z,93450.53
2022-09-16T17:07:25.697Z,93450.19
2022-09-16T17:09:54.161Z,93449.66
2022-09-16T17:12:20.968Z,93468.03
2022-09-16T17:14:47.784Z,93479.06
2022-09-16T17:17:14.419Z,93490.03
2022-09-16T17:19:41.025Z,93484.38
2022-09-16T17:22:07.762Z,93482.25
2022-09-16T17:24:34.835Z,93479.56
2022-09-16T17:27:02.220Z,93467.38
2022-09-16T17:29:29.133Z,93494.84
2022-09-16T17:31:57.232Z,93487.44
2022-09-16T17:34:26.396Z,93501.88
2022-09-16T17:36:53.250Z,93489.59
2022-09-16T17:39:22.822Z,93499.59
2022-09-16T17:41:51.104Z,93506.16
2022-09-16T17:44:19.008Z,93504.38
2022-09-16T17:46:47.166Z,93494.50
2022-09-16T17:49:20.259Z,93491.78
2022-09-16T17:51:47.927Z,93505.94
2022-09-16T17:54:15.182Z,93513.38
2022-09-16T17:56:45.176Z,93507.44
2022-09-16T17:59:13.608Z,93513.66
2022-09-16T18:01:41.107Z,93503.84
2022-09-16T18:04:08.227Z,93510.31
2022-09-16T18:06:40.942Z,93514.75
2022-09-16T18:09:07.707Z,93503.16
2022-09-16T18:11:36.392Z,93517.03
2022-09-16T18:14:05.119Z,93513.22
2022-09-16T18:16:32.802Z,93511.19
2022-09-16T18:19:02.195Z,93507.38
2022-09-16T18:21:29.882Z,93512.97
2022-09-16T18:23:59.358Z,93509.66
2022-09-16T18:26:27.412Z,93512.03
2022-09-16T18:29:12.581Z,93520.41
2022-09-16T18:31:41.565Z,93501.44
2022-09-16T18:34:08.575Z,93510.88
2022-09-16T18:36:37.722Z,93508.19
2022-09-16T18:39:06.051Z,93511.59
2022-09-16T18:41:38.271Z,93518.44
2022-09-16T18:44:16.308Z,93524.97
2022-09-16T18:46:43.680Z,93523.31
2022-09-16T18:49:12.784Z,93520.53
2022-09-16T18:51:50.522Z,93526.50
2022-09-16T18:54:25.971Z,93530.63
2022-09-16T18:56:55.843Z,93524.84
2022-09-16T18:59:24.555Z,93522.81
2022-09-16T19:01:53.889Z,93513.97
2022-09-16T19:04:27.886Z,93514.28
2022-09-16T19:06:57.357Z,93519.16
2022-09-16T19:09:24.375Z,93511.03
2022-09-16T19:11:53.152Z,93505.38
2022-09-16T19:14:22.452Z,93495.66
2022-09-16T19:16:49.232Z,93490.66
2022-09-16T19:19:16.130Z,93472.50
2022-09-16T19:21:43.669Z,93470.53
2022-09-16T19:24:14.358Z,93477.94
2022-09-16T19:26:42.224Z,93478.47
2022-09-16T19:29:09.829Z,93491.97
2022-09-16T19:31:39.371Z,93477.50
2022-09-16T19:34:06.864Z,93496.03
2022-09-16T19:36:35.381Z,93477.41
2022-09-16T19:39:02.809Z,93484.81
2022-09-16T19:41:31.364Z,93498.31
2022-09-16T19:44:01.146Z,93491.63
2022-09-16T19:46:28.971Z,93483.94
2022-09-16T19:48:55.871Z,93483.63
2022-09-16T19:51:23.877Z,93484.47
2022-09-16T19:53:52.426Z,93482.38
2022-09-16T19:56:22.179Z,93472.16
2022-09-16T19:58:50.368Z,93471.41
2022-09-16T20:01:22.660Z,93474.34
2022-09-16T20:03:52.479Z,93476.63
2022-09-16T20:06:39.967Z,93476.41
2022-09-16T20:09:11.541Z,93475.16
2022-09-16T20:11:40.516Z,93463.06
2022-09-16T20:14:13.575Z,93463.16
2022-09-16T20:16:40.683Z,93466.03
2022-09-16T20:19:13.588Z,93470.66
2022-09-16T20:21:40.999Z,93480.69
2022-09-16T20:24:13.697Z,93487.34
2022-09-16T20:26:40.332Z,93494.19
2022-09-16T20:29:07.096Z,93487.75
2022-09-16T20:31:35.911Z,93480.97
2022-09-16T20:34:03.623Z,93482.19
2022-09-16T20:36:31.785Z,93488.06
2022-09-16T20:38:59.901Z,93478.72
2022-09-16T20:41:30.015Z,93487.00
2022-09-16T20:43:57.323Z,93477.41
2022-09-16T20:46:29.826Z,93486.09
2022-09-16T20:48:58.610Z,93484.69
2022-09-16T20:51:27.582Z,93492.41
2022-09-16T20:54:07.697Z,93493.69
2022-09-16T20:56:39.751Z,93499.94
2022-09-16T20:59:13.216Z,93499.06
2022-09-16T21:01:41.687Z,93494.38
2022-09-16T21:04:15.641Z,93505.59
2022-09-16T21:06:42.661Z,93485.78
2022-09-16T21:09:12.155Z,93477.06
2022-09-16T21:11:42.742Z,93476.28
2022-09-16T21:14:09.368Z,93474.56
2022-09-16T21:16:37.873Z,93466.06
2022-09-16T21:19:09.307Z,93461.81
2022-09-16T21:21:38.659Z,93448.41
2022-09-16T21:24:07.288Z,93440.78
2022-09-16T21:26:35.862Z,93438.97
2022-09-16T21:29:08.862Z,93441.78
2022-09-16T21:31:38.023Z,93432.09
2022-09-16T21:34:07.045Z,93430.91
2022-09-16T21:36:35.427Z,93423.19
2022-09-16T21:39:02.235Z,93426.75
2022-09-16T21:41:29.148Z,93419.78
2022-09-16T21:43:57.471Z,93430.66
2022-09-16T21:46:29.141Z,93428.19
2022-09-16T21:49:02.344Z,93426.06
2022-09-16T21:51:36.231Z,93437.59
2022-09-16T21:54:04.566Z,93439.59
2022-09-16T21:56:31.637Z,93444.41
2022-09-16T21:58:59.174Z,93450.81
2022-09-16T22:01:28.576Z,93458.19
2022-09-16T22:03:58.170Z,93460.44
2022-09-16T22:06:26.333Z,93443.22
2022-09-16T22:08:58.830Z,93436.50
2022-09-16T22:11:28.435Z,93447.75
2022-09-16T22:13:56.656Z,93439.34
2022-09-16T22:16:28.729Z,93444.13
2022-09-16T22:18:55.534Z,93439.59
2022-09-16T22:21:23.285Z,93437.50
2022-09-16T22:23:50.519Z,93429.91
2022-09-16T22:26:19.453Z,93433.69
2022-09-16T22:28:46.387Z,93428.09
2022-09-16T22:31:16.215Z,93424.91
2022-09-16T22:33:44.595Z,93419.38
2022-09-16T22:36:17.013Z,93415.16
2022-09-16T22:38:48.113Z,93421.16
2022-09-16T22:41:16.038Z,93425.41
2022-09-16T22:43:45.180Z,93428.81
2022-09-16T22:46:12.022Z,93445.00
2022-09-16T22:48:40.085Z,93438.09
2022-09-16T22:51:07.807Z,93428.25
2022-09-16T22:53:34.969Z,93424.63
2022-09-16T22:56:07.184Z,93417.09
2022-09-16T22:58:34.241Z,93418.19
2022-09-16T23:01:09.801Z,93408.25
2022-09-16T23:03:36.730Z,93411.25
2022-09-16T23:06:06.049Z,93406.84
2022-09-16T23:08:36.022Z,93409.41
2022-09-16T23:11:04.340Z,93397.97
2022-09-16T23:13:36.041Z,93394.84
2022-09-16T23:16:05.596Z,93395.88
2022-09-16T23:18:34.670Z,93395.41
2022-09-16T23:21:04.199Z,93402.09
2022-09-16T23:23:32.251Z,93399.56
2022-09-16T23:26:03.709Z,93401.09
2022-09-16T23:28:31.013Z,93403.97
2022-09-16T23:31:05.423Z,93390.47
2022-09-16T23:33:33.004Z,93379.31
2022-09-16T23:36:00.440Z,93380.00
2022-09-16T23:38:27.725Z,93368.91
2022-09-16T23:40:54.764Z,93359.97
2022-09-16T23:43:21.756Z,93365.28
2022-09-16T23:45:48.496Z,93362.00
2022-09-16T23:48:15.219Z,93358.25
2022-09-16T23:50:44.223Z,93360.50
2022-09-16T23:53:11.305Z,93360.50
2022-09-16T23:55:42.291Z,93357.53
2022-09-16T23:58:09.412Z,93363.63
